createdAt,value
2022-08-25T00:00:17.989Z,16.52
2022-08-25T00:01:07.955Z,16.54
2022-08-25T00:01:57.932Z,16.54
2022-08-25T00:02:55.627Z,16.52
2022-08-25T00:03:39.577Z,16.54
2022-08-25T00:04:27.945Z,16.54
2022-08-25T00:05:17.957Z,16.54
2022-08-25T00:06:07.916Z,16.54
2022-08-25T00:07:02.736Z,16.52
2022-08-25T00:07:48.884Z,16.54
2022-08-25T00:08:37.866Z,16.52
2022-08-25T00:09:27.891Z,16.52
2022-08-25T00:10:17.862Z,16.52
2022-08-25T00:11:07.832Z,16.54
2022-08-25T00:11:57.822Z,16.57
2022-08-25T00:12:47.841Z,16.55
2022-08-25T00:13:37.801Z,16.54
2022-08-25T00:14:27.836Z,16.55
2022-08-25T00:15:17.794Z,16.54
2022-08-25T00:16:07.846Z,16.54
2022-08-25T00:16:57.773Z,16.52
2022-08-25T00:17:47.755Z,16.50
2022-08-25T00:18:37.784Z,16.47
2022-08-25T00:19:27.753Z,16.47
2022-08-25T00:20:17.724Z,16.47
2022-08-25T00:21:07.721Z,16.48
2022-08-25T00:21:57.714Z,16.50
2022-08-25T00:22:47.712Z,16.51
2022-08-25T00:23:37.693Z,16.51
2022-08-25T00:24:27.713Z,16.51
2022-08-25T00:25:17.689Z,16.51
2022-08-25T00:26:07.692Z,16.51
2022-08-25T00:26:57.655Z,16.51
2022-08-25T00:27:47.654Z,16.48
2022-08-25T00:28:37.631Z,16.45
2022-08-25T00:29:27.635Z,16.40
2022-08-25T00:30:17.637Z,16.33
2022-08-25T00:31:07.712Z,16.29
2022-08-25T00:31:57.622Z,16.26
2022-08-25T00:32:55.486Z,16.22
2022-08-25T00:33:38.573Z,16.18
2022-08-25T00:34:27.572Z,16.18
2022-08-25T00:35:17.576Z,16.17
2022-08-25T00:36:07.569Z,16.16
2022-08-25T00:36:57.573Z,16.17
2022-08-25T00:37:47.645Z,16.17
2022-08-25T00:38:37.531Z,16.16
2022-08-25T00:39:27.565Z,16.14
2022-08-25T00:40:17.563Z,16.13
2022-08-25T00:41:07.492Z,16.11
2022-08-25T00:41:57.495Z,16.11
2022-08-25T00:42:47.482Z,16.10
2022-08-25T00:43:37.463Z,16.08
2022-08-25T00:44:27.513Z,16.08
2022-08-25T00:45:17.442Z,16.07
2022-08-25T00:46:07.477Z,16.06
2022-08-25T00:46:57.445Z,16.08
2022-08-25T00:47:47.431Z,16.07
2022-08-25T00:48:37.412Z,16.07
2022-08-25T00:49:27.442Z,16.10
2022-08-25T00:50:17.383Z,16.10
2022-08-25T00:51:07.400Z,16.10
2022-08-25T00:51:57.370Z,16.11
2022-08-25T00:52:47.363Z,16.10
2022-08-25T00:53:37.367Z,16.10
2022-08-25T00:54:27.366Z,16.08
2022-08-25T00:55:17.353Z,16.08
2022-08-25T00:56:07.334Z,16.07
2022-08-25T00:56:57.323Z,16.04
2022-08-25T00:57:47.327Z,16.06
2022-08-25T00:58:37.293Z,16.04
2022-08-25T00:59:27.302Z,16.03
2022-08-25T01:00:17.283Z,16.03
2022-08-25T01:01:07.332Z,16.01
2022-08-25T01:01:57.320Z,15.99
2022-08-25T01:02:47.293Z,15.99
2022-08-25T01:03:37.249Z,15.98
2022-08-25T01:04:27.374Z,15.95
2022-08-25T01:05:17.224Z,15.96
2022-08-25T01:06:07.232Z,15.98
2022-08-25T01:06:57.203Z,15.96
2022-08-25T01:07:47.191Z,15.95
2022-08-25T01:08:37.202Z,15.95
2022-08-25T01:09:27.194Z,15.91
2022-08-25T01:10:17.173Z,15.91
2022-08-25T01:11:07.161Z,15.92
2022-08-25T01:11:57.169Z,15.92
2022-08-25T01:12:47.140Z,15.88
2022-08-25T01:13:37.153Z,15.89
2022-08-25T01:14:27.130Z,15.84
2022-08-25T01:15:17.122Z,15.81
2022-08-25T01:16:07.177Z,15.80
2022-08-25T01:16:57.101Z,15.78
2022-08-25T01:17:47.091Z,15.76
2022-08-25T01:18:37.080Z,15.73
2022-08-25T01:19:27.078Z,15.70
2022-08-25T01:20:17.048Z,15.68
2022-08-25T01:21:07.082Z,15.67
2022-08-25T01:21:57.050Z,15.67
2022-08-25T01:22:50.876Z,15.66
2022-08-25T01:23:38.011Z,15.64
2022-08-25T01:24:27.014Z,15.60
2022-08-25T01:25:17.000Z,15.60
2022-08-25T01:26:07.008Z,15.59
2022-08-25T01:26:56.971Z,15.60
2022-08-25T01:27:46.972Z,15.59
2022-08-25T01:28:36.972Z,15.59
2022-08-25T01:29:26.960Z,15.60
2022-08-25T01:30:16.962Z,15.60
2022-08-25T01:31:23.694Z,15.62
2022-08-25T01:31:57.919Z,15.64
2022-08-25T01:32:46.910Z,15.62
2022-08-25T01:33:36.900Z,15.60
2022-08-25T01:34:26.973Z,15.60
2022-08-25T01:35:16.879Z,15.62
2022-08-25T01:36:06.878Z,15.62
2022-08-25T01:36:56.889Z,15.62
2022-08-25T01:37:46.868Z,15.62
2022-08-25T01:38:36.851Z,15.64
2022-08-25T01:39:26.849Z,15.66
2022-08-25T01:40:16.923Z,15.64
2022-08-25T01:41:06.836Z,15.66
2022-08-25T01:41:56.829Z,15.67
2022-08-25T01:42:46.810Z,15.64
2022-08-25T01:43:36.988Z,15.62
2022-08-25T01:44:26.781Z,15.59
2022-08-25T01:45:16.780Z,15.58
2022-08-25T01:46:06.799Z,15.56
2022-08-25T01:46:56.776Z,15.55
2022-08-25T01:47:46.759Z,15.55
2022-08-25T01:48:36.759Z,15.58
2022-08-25T01:49:26.749Z,15.56
2022-08-25T01:50:16.710Z,15.53
2022-08-25T01:51:06.721Z,15.53
2022-08-25T01:51:56.688Z,15.52
2022-08-25T01:52:46.702Z,15.52
2022-08-25T01:53:36.708Z,15.51
2022-08-25T01:54:26.678Z,15.51
2022-08-25T01:55:16.671Z,15.51
2022-08-25T01:56:09.690Z,15.49
2022-08-25T01:56:56.638Z,15.46
2022-08-25T01:57:46.665Z,15.46
2022-08-25T01:58:36.618Z,15.43
2022-08-25T01:59:26.609Z,15.40
2022-08-25T02:00:16.616Z,15.40
2022-08-25T02:01:06.690Z,15.40
2022-08-25T02:01:59.763Z,15.38
2022-08-25T02:02:46.629Z,15.37
2022-08-25T02:03:37.568Z,15.35
2022-08-25T02:04:26.577Z,15.31
2022-08-25T02:05:19.331Z,15.28
2022-08-25T02:06:07.565Z,15.27
2022-08-25T02:06:56.528Z,15.27
2022-08-25T02:07:46.539Z,15.25
2022-08-25T02:08:36.505Z,15.25
2022-08-25T02:09:26.507Z,15.23
2022-08-25T02:10:16.499Z,15.20
2022-08-25T02:11:06.488Z,15.19
2022-08-25T02:11:56.511Z,15.16
2022-08-25T02:12:46.478Z,15.12
2022-08-25T02:13:36.447Z,15.11
2022-08-25T02:14:26.445Z,15.09
2022-08-25T02:15:16.437Z,15.05
2022-08-25T02:16:06.448Z,15.05
2022-08-25T02:16:56.510Z,15.04
2022-08-25T02:17:46.576Z,15.04
2022-08-25T02:18:36.405Z,15.03
2022-08-25T02:19:26.400Z,15.03
2022-08-25T02:20:16.399Z,15.03
2022-08-25T02:21:06.368Z,15.03
2022-08-25T02:21:56.355Z,15.03
2022-08-25T02:22:53.034Z,15.04
2022-08-25T02:23:37.355Z,15.01
2022-08-25T02:24:26.347Z,15.01
2022-08-25T02:25:16.335Z,14.98
2022-08-25T02:26:06.319Z,14.95
2022-08-25T02:26:56.298Z,14.93
2022-08-25T02:27:46.327Z,14.90
2022-08-25T02:28:36.289Z,14.90
2022-08-25T02:29:26.286Z,14.91
2022-08-25T02:30:16.268Z,14.91
2022-08-25T02:31:06.319Z,14.90
2022-08-25T02:31:56.246Z,14.93
2022-08-25T02:32:46.275Z,14.90
2022-08-25T02:33:36.239Z,14.91
2022-08-25T02:34:26.237Z,14.91
2022-08-25T02:35:16.206Z,14.93
2022-08-25T02:36:06.206Z,14.91
2022-08-25T02:36:56.208Z,14.91
2022-08-25T02:37:46.185Z,14.93
2022-08-25T02:38:36.178Z,14.91
2022-08-25T02:39:26.198Z,14.90
2022-08-25T02:40:16.211Z,14.91
2022-08-25T02:41:06.164Z,14.86
2022-08-25T02:41:56.133Z,14.83
2022-08-25T02:42:46.127Z,14.82
2022-08-25T02:43:36.133Z,14.78
2022-08-25T02:44:26.117Z,14.74
2022-08-25T02:45:16.108Z,14.74
2022-08-25T02:46:06.265Z,14.72
2022-08-25T02:46:56.114Z,14.71
2022-08-25T02:47:46.066Z,14.69
2022-08-25T02:48:36.056Z,14.66
2022-08-25T02:49:26.068Z,14.67
2022-08-25T02:50:16.037Z,14.64
2022-08-25T02:51:06.166Z,14.61
2022-08-25T02:51:56.045Z,14.63
2022-08-25T02:52:46.027Z,14.60
2022-08-25T02:53:35.999Z,14.60
2022-08-25T02:54:25.995Z,14.59
2022-08-25T02:55:16.027Z,14.60
2022-08-25T02:56:05.979Z,14.61
2022-08-25T02:56:55.995Z,14.61
2022-08-25T02:57:45.965Z,14.63
2022-08-25T02:58:35.956Z,14.63
2022-08-25T02:59:25.934Z,14.63
2022-08-25T03:00:15.947Z,14.63
2022-08-25T03:01:05.980Z,14.64
2022-08-25T03:01:55.935Z,14.61
2022-08-25T03:02:45.905Z,14.60
2022-08-25T03:03:39.352Z,14.59
2022-08-25T03:04:25.901Z,14.56
2022-08-25T03:05:15.967Z,14.54
2022-08-25T03:06:05.884Z,14.49
2022-08-25T03:06:55.866Z,14.46
2022-08-25T03:07:45.842Z,14.42
2022-08-25T03:08:35.857Z,14.45
2022-08-25T03:09:25.829Z,14.46
2022-08-25T03:10:15.814Z,14.46
2022-08-25T03:11:05.844Z,14.48
2022-08-25T03:11:55.816Z,14.52
2022-08-25T03:12:45.803Z,14.54
2022-08-25T03:13:35.791Z,14.56
2022-08-25T03:14:25.765Z,14.57
2022-08-25T03:15:15.791Z,14.60
2022-08-25T03:16:05.783Z,14.60
2022-08-25T03:16:56.841Z,14.61
2022-08-25T03:17:45.876Z,14.61
2022-08-25T03:18:35.723Z,14.61
2022-08-25T03:19:25.714Z,14.61
2022-08-25T03:20:15.734Z,14.60
2022-08-25T03:21:05.695Z,14.61
2022-08-25T03:21:55.684Z,14.61
2022-08-25T03:22:45.686Z,14.61
2022-08-25T03:23:35.674Z,14.63
2022-08-25T03:24:25.676Z,14.61
2022-08-25T03:25:15.696Z,14.61
2022-08-25T03:26:05.652Z,14.60
2022-08-25T03:26:55.635Z,14.59
2022-08-25T03:27:45.633Z,14.57
2022-08-25T03:28:35.644Z,14.56
2022-08-25T03:29:25.603Z,14.57
2022-08-25T03:30:15.603Z,14.56
2022-08-25T03:31:05.578Z,14.56
2022-08-25T03:31:55.622Z,14.56
2022-08-25T03:32:45.608Z,14.56
2022-08-25T03:33:35.552Z,14.54
2022-08-25T03:34:25.539Z,14.53
2022-08-25T03:35:15.543Z,14.52
2022-08-25T03:36:05.551Z,14.46
2022-08-25T03:36:55.525Z,14.44
2022-08-25T03:37:45.503Z,14.42
2022-08-25T03:38:35.523Z,14.41
2022-08-25T03:39:25.495Z,14.41
2022-08-25T03:40:16.527Z,14.42
2022-08-25T03:41:05.475Z,14.44
2022-08-25T03:41:55.473Z,14.42
2022-08-25T03:42:45.444Z,14.44
2022-08-25T03:43:35.442Z,14.41
2022-08-25T03:44:25.438Z,14.44
2022-08-25T03:45:15.421Z,14.41
2022-08-25T03:46:05.446Z,14.41
2022-08-25T03:46:55.413Z,14.41
2022-08-25T03:47:45.403Z,14.41
2022-08-25T03:48:35.380Z,14.39
2022-08-25T03:49:25.386Z,14.39
2022-08-25T03:50:15.361Z,14.41
2022-08-25T03:51:05.360Z,14.41
2022-08-25T03:51:55.362Z,14.41
2022-08-25T03:52:45.330Z,14.41
2022-08-25T03:53:35.331Z,14.42
2022-08-25T03:54:25.340Z,14.44
2022-08-25T03:55:15.322Z,14.44
2022-08-25T03:56:05.303Z,14.45
2022-08-25T03:56:55.288Z,14.46
2022-08-25T03:57:45.284Z,14.48
2022-08-25T03:58:35.272Z,14.49
2022-08-25T03:59:25.281Z,14.49
2022-08-25T04:00:15.281Z,14.49
2022-08-25T04:01:05.266Z,14.49
2022-08-25T04:01:55.690Z,14.49
2022-08-25T04:02:45.356Z,14.49
2022-08-25T04:03:35.210Z,14.48
2022-08-25T04:04:25.228Z,14.46
2022-08-25T04:05:15.848Z,14.46
2022-08-25T04:06:05.201Z,14.45
2022-08-25T04:06:55.170Z,14.42
2022-08-25T04:07:45.163Z,14.42
2022-08-25T04:08:35.164Z,14.41
2022-08-25T04:09:25.161Z,14.41
2022-08-25T04:10:15.155Z,14.38
2022-08-25T04:11:05.132Z,14.36
2022-08-25T04:11:55.137Z,14.38
2022-08-25T04:12:45.101Z,14.36
2022-08-25T04:13:35.111Z,14.38
2022-08-25T04:14:25.131Z,14.38
2022-08-25T04:15:15.092Z,14.38
2022-08-25T04:16:05.107Z,14.36
2022-08-25T04:16:55.157Z,14.36
2022-08-25T04:17:45.050Z,14.35
2022-08-25T04:18:35.047Z,14.36
2022-08-25T04:19:25.040Z,14.35
2022-08-25T04:20:15.052Z,14.35
2022-08-25T04:21:05.029Z,14.31
2022-08-25T04:21:56.706Z,14.34
2022-08-25T04:22:45.286Z,14.34
2022-08-25T04:23:34.989Z,14.31
2022-08-25T04:24:24.989Z,14.34
2022-08-25T04:25:14.987Z,14.35
2022-08-25T04:26:04.960Z,14.35
2022-08-25T04:26:54.949Z,14.35
2022-08-25T04:27:44.952Z,14.34
2022-08-25T04:28:34.957Z,14.31
2022-08-25T04:29:24.992Z,14.29
2022-08-25T04:30:14.909Z,14.26
2022-08-25T04:31:04.916Z,14.26
2022-08-25T04:31:54.989Z,14.24
2022-08-25T04:32:44.880Z,14.23
2022-08-25T04:33:34.890Z,14.21
2022-08-25T04:34:29.372Z,14.19
2022-08-25T04:35:15.869Z,14.19
2022-08-25T04:36:08.786Z,14.17
2022-08-25T04:36:55.849Z,14.19
2022-08-25T04:37:44.820Z,14.16
2022-08-25T04:38:34.828Z,14.11
2022-08-25T04:39:24.811Z,14.11
2022-08-25T04:40:14.858Z,14.09
2022-08-25T04:41:04.788Z,14.09
2022-08-25T04:41:54.789Z,14.09
2022-08-25T04:42:44.793Z,14.11
2022-08-25T04:43:34.760Z,14.09
2022-08-25T04:44:24.767Z,14.09
2022-08-25T04:45:14.759Z,14.11
2022-08-25T04:46:04.776Z,14.08
2022-08-25T04:46:54.726Z,14.05
2022-08-25T04:47:44.708Z,14.05
2022-08-25T04:48:34.721Z,14.02
2022-08-25T04:49:24.710Z,14.01
2022-08-25T04:50:14.707Z,13.98
2022-08-25T04:51:04.690Z,13.98
2022-08-25T04:51:54.688Z,13.98
2022-08-25T04:52:44.647Z,13.99
2022-08-25T04:53:34.677Z,13.98
2022-08-25T04:54:24.655Z,13.99
2022-08-25T04:55:14.628Z,14.01
2022-08-25T04:56:04.634Z,14.04
2022-08-25T04:56:58.297Z,14.04
2022-08-25T04:57:44.607Z,14.04
2022-08-25T04:58:34.620Z,14.02
2022-08-25T04:59:24.589Z,14.02
2022-08-25T05:00:15.607Z,14.02
2022-08-25T05:01:04.664Z,14.02
2022-08-25T05:01:54.591Z,14.04
2022-08-25T05:02:44.557Z,14.06
2022-08-25T05:03:34.537Z,14.06
2022-08-25T05:04:28.417Z,14.08
2022-08-25T05:05:14.519Z,14.09
2022-08-25T05:06:04.536Z,14.09
2022-08-25T05:06:54.516Z,14.11
2022-08-25T05:07:44.507Z,14.09
2022-08-25T05:08:34.477Z,14.12
2022-08-25T05:09:25.089Z,14.12
2022-08-25T05:10:14.466Z,14.13
2022-08-25T05:11:04.505Z,14.13
2022-08-25T05:11:54.457Z,14.13
2022-08-25T05:12:44.439Z,14.17
2022-08-25T05:13:34.459Z,14.19
2022-08-25T05:14:26.393Z,14.20
2022-08-25T05:15:14.415Z,14.20
2022-08-25T05:16:04.453Z,14.20
2022-08-25T05:16:55.449Z,14.17
2022-08-25T05:17:44.374Z,14.17
2022-08-25T05:18:34.366Z,14.13
2022-08-25T05:19:24.593Z,14.13
2022-08-25T05:20:14.345Z,14.12
2022-08-25T05:21:04.334Z,14.12
2022-08-25T05:21:54.327Z,14.12
2022-08-25T05:22:44.316Z,14.11
2022-08-25T05:23:34.337Z,14.12
2022-08-25T05:24:24.446Z,14.11
2022-08-25T05:25:14.296Z,14.13
2022-08-25T05:26:04.274Z,14.13
2022-08-25T05:26:54.285Z,14.17
2022-08-25T05:27:44.286Z,14.20
2022-08-25T05:28:34.276Z,14.21
2022-08-25T05:29:24.245Z,14.23
2022-08-25T05:30:14.253Z,14.26
2022-08-25T05:31:04.249Z,14.29
2022-08-25T05:31:54.332Z,14.27
2022-08-25T05:32:44.217Z,14.30
2022-08-25T05:33:34.243Z,14.30
2022-08-25T05:34:24.204Z,14.30
2022-08-25T05:35:14.203Z,14.31
2022-08-25T05:36:04.189Z,14.35
2022-08-25T05:36:54.175Z,14.34
2022-08-25T05:37:44.166Z,14.35
2022-08-25T05:38:34.161Z,14.38
2022-08-25T05:39:24.698Z,14.38
2022-08-25T05:40:14.185Z,14.39
2022-08-25T05:41:04.105Z,14.41
2022-08-25T05:41:54.135Z,14.44
2022-08-25T05:42:44.094Z,14.45
2022-08-25T05:43:34.106Z,14.46
2022-08-25T05:44:24.096Z,14.46
2022-08-25T05:45:15.825Z,14.48
2022-08-25T05:46:05.165Z,14.48
2022-08-25T05:46:54.086Z,14.46
2022-08-25T05:47:44.034Z,14.45
2022-08-25T05:48:34.033Z,14.42
2022-08-25T05:49:24.014Z,14.41
2022-08-25T05:50:14.036Z,14.39
2022-08-25T05:51:04.003Z,14.41
2022-08-25T05:51:54.055Z,14.41
2022-08-25T05:52:43.982Z,14.42
2022-08-25T05:53:34.180Z,14.42
2022-08-25T05:54:23.972Z,14.44
2022-08-25T05:55:13.960Z,14.44
2022-08-25T05:56:03.971Z,14.44
2022-08-25T05:56:53.946Z,14.44
2022-08-25T05:57:43.926Z,14.44
2022-08-25T05:58:33.964Z,14.44
2022-08-25T05:59:23.913Z,14.46
2022-08-25T06:00:13.901Z,14.49
2022-08-25T06:01:03.955Z,14.52
2022-08-25T06:01:53.883Z,14.52
2022-08-25T06:02:43.872Z,14.53
2022-08-25T06:03:33.928Z,14.53
2022-08-25T06:04:23.874Z,14.52
2022-08-25T06:05:13.867Z,14.52
2022-08-25T06:06:03.833Z,14.49
2022-08-25T06:06:53.823Z,14.52
2022-08-25T06:07:43.825Z,14.53
2022-08-25T06:08:33.812Z,14.54
2022-08-25T06:09:23.815Z,14.56
2022-08-25T06:10:13.823Z,14.57
2022-08-25T06:11:03.796Z,14.60
2022-08-25T06:11:55.251Z,14.60
2022-08-25T06:12:43.752Z,14.60
2022-08-25T06:13:33.772Z,14.59
2022-08-25T06:14:23.753Z,14.60
2022-08-25T06:15:13.774Z,14.60
2022-08-25T06:16:03.752Z,14.60
2022-08-25T06:16:53.725Z,14.61
2022-08-25T06:17:43.712Z,14.60
2022-08-25T06:18:33.695Z,14.60
2022-08-25T06:19:23.864Z,14.63
2022-08-25T06:20:13.700Z,14.61
2022-08-25T06:21:03.675Z,14.60
2022-08-25T06:21:53.672Z,14.61
2022-08-25T06:22:43.651Z,14.63
2022-08-25T06:23:33.642Z,14.66
2022-08-25T06:24:23.622Z,14.66
2022-08-25T06:25:13.624Z,14.69
2022-08-25T06:26:03.644Z,14.72
2022-08-25T06:26:53.601Z,14.74
2022-08-25T06:27:43.583Z,14.78
2022-08-25T06:28:33.592Z,14.82
2022-08-25T06:29:23.591Z,14.83
2022-08-25T06:30:13.559Z,14.83
2022-08-25T06:31:03.585Z,14.82
2022-08-25T06:31:53.656Z,14.80
2022-08-25T06:32:43.542Z,14.75
2022-08-25T06:33:33.521Z,14.78
2022-08-25T06:34:23.902Z,14.75
2022-08-25T06:35:13.511Z,14.78
2022-08-25T06:36:03.515Z,14.75
2022-08-25T06:36:53.508Z,14.79
2022-08-25T06:37:43.843Z,14.83
2022-08-25T06:38:33.500Z,14.91
2022-08-25T06:39:23.550Z,14.97
2022-08-25T06:40:13.566Z,15.03
2022-08-25T06:41:03.451Z,15.09
2022-08-25T06:41:53.432Z,15.16
2022-08-25T06:42:43.449Z,15.20
2022-08-25T06:43:33.431Z,15.27
2022-08-25T06:44:23.402Z,15.31
2022-08-25T06:45:13.389Z,15.33
2022-08-25T06:46:03.381Z,15.38
2022-08-25T06:46:53.423Z,15.40
2022-08-25T06:47:43.370Z,15.41
2022-08-25T06:48:33.361Z,15.44
2022-08-25T06:49:23.351Z,15.48
2022-08-25T06:50:13.341Z,15.51
2022-08-25T06:51:03.327Z,15.52
2022-08-25T06:51:53.340Z,15.53
2022-08-25T06:52:43.332Z,15.56
2022-08-25T06:53:33.317Z,15.58
2022-08-25T06:54:23.302Z,15.62
2022-08-25T06:55:13.280Z,15.67
2022-08-25T06:56:06.479Z,15.68
2022-08-25T06:56:53.434Z,15.73
2022-08-25T06:57:43.249Z,15.76
2022-08-25T06:58:33.252Z,15.80
2022-08-25T06:59:23.251Z,15.84
2022-08-25T07:00:13.230Z,15.86
2022-08-25T07:01:03.262Z,15.89
2022-08-25T07:01:53.315Z,15.92
2022-08-25T07:02:43.262Z,15.98
2022-08-25T07:03:33.190Z,16.04
2022-08-25T07:04:23.190Z,16.07
2022-08-25T07:05:16.969Z,16.10
2022-08-25T07:06:04.170Z,16.17
2022-08-25T07:06:53.150Z,16.25
2022-08-25T07:07:44.292Z,16.29
2022-08-25T07:08:33.143Z,16.32
2022-08-25T07:09:23.119Z,16.34
2022-08-25T07:10:13.117Z,16.37
2022-08-25T07:11:03.110Z,16.44
2022-08-25T07:11:53.119Z,16.45
2022-08-25T07:12:43.087Z,16.50
2022-08-25T07:13:33.078Z,16.52
2022-08-25T07:14:23.081Z,16.57
2022-08-25T07:15:20.986Z,16.60
2022-08-25T07:16:04.137Z,16.69
2022-08-25T07:16:53.029Z,16.73
2022-08-25T07:17:43.049Z,16.80
2022-08-25T07:18:33.031Z,16.82
2022-08-25T07:19:23.032Z,16.88
2022-08-25T07:20:13.632Z,16.91
2022-08-25T07:21:03.004Z,16.98
2022-08-25T07:21:53.005Z,17.06
2022-08-25T07:22:42.992Z,17.07
2022-08-25T07:23:32.977Z,17.10
2022-08-25T07:24:22.949Z,17.18
2022-08-25T07:25:12.953Z,17.27
2022-08-25T07:26:11.531Z,17.35
2022-08-25T07:26:54.088Z,17.38
2022-08-25T07:27:42.917Z,17.45
2022-08-25T07:28:32.922Z,17.54
2022-08-25T07:30:13.899Z,17.71
2022-08-25T07:31:02.931Z,17.81
2022-08-25T07:31:52.950Z,17.96
2022-08-25T07:32:43.121Z,18.04
2022-08-25T07:33:32.858Z,18.13
2022-08-25T07:34:22.889Z,18.26
2022-08-25T07:35:12.827Z,18.42
2022-08-25T07:36:02.828Z,18.51
2022-08-25T07:36:52.820Z,18.59
2022-08-25T07:37:49.148Z,18.64
2022-08-25T07:38:33.800Z,18.68
2022-08-25T07:39:22.790Z,18.74
2022-08-25T07:40:12.876Z,18.82
2022-08-25T07:41:02.769Z,18.83
2022-08-25T07:41:52.807Z,18.91
2022-08-25T07:42:42.748Z,18.99
2022-08-25T07:43:32.748Z,19.07
2022-08-25T07:44:22.739Z,19.13
2022-08-25T07:45:12.729Z,19.17
2022-08-25T07:46:02.720Z,19.20
2022-08-25T07:46:53.657Z,19.24
2022-08-25T07:47:42.689Z,19.27
2022-08-25T07:48:32.685Z,19.31
2022-08-25T07:49:23.107Z,19.43
2022-08-25T07:50:12.672Z,19.47
2022-08-25T07:51:05.546Z,19.53
2022-08-25T07:52:05.525Z,19.60
2022-08-25T07:52:43.630Z,19.70
2022-08-25T07:53:32.630Z,19.75
2022-08-25T07:54:22.610Z,19.82
2022-08-25T07:55:13.625Z,19.90
2022-08-25T07:56:52.597Z,20.05
2022-08-25T07:57:42.598Z,20.15
2022-08-25T07:58:32.565Z,20.19
2022-08-25T07:59:22.582Z,20.22
2022-08-25T08:00:12.579Z,20.27
2022-08-25T08:01:02.537Z,20.35
2022-08-25T08:01:52.605Z,20.44
2022-08-25T08:02:42.579Z,20.50
2022-08-25T08:03:45.148Z,20.54
2022-08-25T08:04:23.508Z,20.63
2022-08-25T08:05:12.489Z,20.64
2022-08-25T08:06:02.531Z,20.69
2022-08-25T08:06:52.478Z,20.71
2022-08-25T08:07:43.820Z,20.76
2022-08-25T08:08:32.637Z,20.82
2022-08-25T08:09:22.445Z,20.91
2022-08-25T08:10:42.465Z,20.94
2022-08-25T08:11:04.660Z,20.96
2022-08-25T08:11:54.389Z,21.05
2022-08-25T08:12:42.417Z,21.06
2022-08-25T08:13:32.405Z,21.09
2022-08-25T08:14:22.395Z,21.08
2022-08-25T08:15:12.388Z,21.11
2022-08-25T08:16:02.434Z,21.13
2022-08-25T08:16:52.375Z,21.15
2022-08-25T08:17:42.348Z,21.16
2022-08-25T08:18:32.337Z,21.15
2022-08-25T08:19:23.161Z,21.18
2022-08-25T08:20:12.318Z,21.19
2022-08-25T08:21:02.328Z,21.21
2022-08-25T08:21:52.319Z,21.24
2022-08-25T08:22:42.310Z,21.27
2022-08-25T08:23:32.298Z,21.30
2022-08-25T08:24:40.805Z,21.42
2022-08-25T08:25:18.696Z,21.48
2022-08-25T08:26:03.278Z,21.55
2022-08-25T08:26:58.643Z,21.56
2022-08-25T08:27:43.239Z,21.64
2022-08-25T08:28:32.249Z,21.66
2022-08-25T08:29:22.321Z,21.71
2022-08-25T08:30:12.247Z,21.75
2022-08-25T08:31:02.228Z,21.81
2022-08-25T08:31:52.243Z,21.85
2022-08-25T08:33:08.076Z,21.90
2022-08-25T08:33:33.168Z,21.96
2022-08-25T08:34:25.050Z,22.02
2022-08-25T08:35:12.176Z,22.06
2022-08-25T08:36:05.139Z,22.06
2022-08-25T08:36:52.151Z,22.11
2022-08-25T08:37:42.167Z,22.14
2022-08-25T08:38:32.117Z,22.15
2022-08-25T08:39:22.108Z,22.19
2022-08-25T08:40:12.167Z,22.21
2022-08-25T08:41:02.161Z,22.26
2022-08-25T08:42:10.810Z,22.27
2022-08-25T08:42:43.077Z,22.33
2022-08-25T08:43:33.457Z,22.36
2022-08-25T08:44:22.068Z,22.41
2022-08-25T08:45:12.038Z,22.52
2022-08-25T08:46:02.126Z,22.57
2022-08-25T08:46:52.071Z,22.60
2022-08-25T08:47:42.040Z,22.61
2022-08-25T08:48:32.008Z,22.63
2022-08-25T08:49:22.010Z,22.64
2022-08-25T08:50:11.987Z,22.67
2022-08-25T08:51:02.027Z,22.67
2022-08-25T08:51:51.988Z,22.74
2022-08-25T08:52:41.978Z,22.78
2022-08-25T08:53:34.263Z,22.84
2022-08-25T08:54:23.136Z,22.85
2022-08-25T08:55:11.960Z,22.86
2022-08-25T08:56:01.938Z,22.94
2022-08-25T08:56:51.916Z,22.97
2022-08-25T08:57:41.940Z,23.00
2022-08-25T08:58:31.908Z,23.06
2022-08-25T08:59:21.889Z,23.12
2022-08-25T09:00:11.889Z,23.18
2022-08-25T09:01:01.899Z,23.23
2022-08-25T09:01:53.216Z,23.31
2022-08-25T09:02:51.498Z,23.38
2022-08-25T09:03:32.928Z,23.44
2022-08-25T09:04:21.849Z,23.45
2022-08-25T09:05:11.829Z,23.52
2022-08-25T09:06:01.841Z,23.56
2022-08-25T09:06:51.810Z,23.62
2022-08-25T09:07:42.255Z,23.64
2022-08-25T09:08:31.779Z,23.69
2022-08-25T09:09:21.831Z,23.71
2022-08-25T09:10:11.779Z,23.74
2022-08-25T09:11:01.769Z,23.74
2022-08-25T09:11:51.752Z,23.78
2022-08-25T09:12:45.494Z,23.81
2022-08-25T09:13:32.752Z,23.84
2022-08-25T09:14:21.758Z,23.87
2022-08-25T09:15:13.527Z,23.89
2022-08-25T09:16:01.758Z,23.92
2022-08-25T09:16:51.700Z,23.96
2022-08-25T09:17:41.809Z,24.00
2022-08-25T09:18:31.679Z,24.04
2022-08-25T09:19:23.465Z,24.06
2022-08-25T09:20:18.671Z,24.09
2022-08-25T09:21:02.699Z,24.16
2022-08-25T09:21:51.651Z,24.18
2022-08-25T09:22:41.664Z,24.23
2022-08-25T09:23:31.611Z,24.30
2022-08-25T09:24:21.609Z,24.34
2022-08-25T09:25:11.811Z,24.39
2022-08-25T09:26:01.604Z,24.41
2022-08-25T09:26:51.583Z,24.44
2022-08-25T09:27:41.589Z,24.46
2022-08-25T09:28:31.569Z,24.49
2022-08-25T09:29:21.570Z,24.52
2022-08-25T09:30:11.553Z,24.53
2022-08-25T09:31:01.783Z,24.56
2022-08-25T09:31:51.565Z,24.59
2022-08-25T09:32:41.522Z,24.60
2022-08-25T09:33:34.215Z,24.59
2022-08-25T09:34:21.510Z,24.59
2022-08-25T09:35:11.518Z,24.55
2022-08-25T09:36:01.527Z,24.55
2022-08-25T09:36:51.471Z,24.55
2022-08-25T09:37:41.482Z,24.56
2022-08-25T09:38:31.471Z,24.61
2022-08-25T09:39:21.441Z,24.63
2022-08-25T09:40:11.527Z,24.67
2022-08-25T09:41:01.440Z,24.66
2022-08-25T09:41:51.675Z,24.63
2022-08-25T09:42:41.421Z,24.63
2022-08-25T09:43:31.390Z,24.64
2022-08-25T09:44:21.451Z,24.70
2022-08-25T09:45:11.381Z,24.75
2022-08-25T09:46:01.480Z,24.82
2022-08-25T09:46:51.372Z,24.83
2022-08-25T09:47:41.370Z,24.89
2022-08-25T09:48:31.340Z,24.93
2022-08-25T09:49:21.331Z,24.99
2022-08-25T09:50:11.343Z,25.01
2022-08-25T09:51:02.311Z,25.04
2022-08-25T09:51:52.693Z,25.05
2022-08-25T09:52:41.833Z,25.08
2022-08-25T09:53:33.730Z,25.02
2022-08-25T09:54:21.284Z,25.02
2022-08-25T09:55:13.165Z,25.05
2022-08-25T09:56:01.258Z,25.08
2022-08-25T09:56:51.243Z,25.11
2022-08-25T09:57:41.252Z,25.14
2022-08-25T09:58:31.224Z,25.20
2022-08-25T09:59:21.253Z,25.24
2022-08-25T10:00:12.221Z,25.35
2022-08-25T10:01:01.213Z,25.36
2022-08-25T10:01:51.241Z,25.44
2022-08-25T10:02:41.208Z,25.49
2022-08-25T10:03:31.192Z,25.53
2022-08-25T10:04:22.159Z,25.56
2022-08-25T10:05:11.226Z,25.59
2022-08-25T10:06:01.153Z,25.63
2022-08-25T10:06:51.132Z,25.66
2022-08-25T10:07:41.122Z,25.67
2022-08-25T10:08:31.270Z,25.69
2022-08-25T10:09:21.101Z,25.71
2022-08-25T10:10:11.111Z,25.74
2022-08-25T10:11:01.113Z,25.75
2022-08-25T10:11:51.084Z,25.74
2022-08-25T10:12:42.747Z,25.74
2022-08-25T10:13:31.063Z,25.71
2022-08-25T10:14:21.081Z,25.67
2022-08-25T10:15:11.041Z,25.67
2022-08-25T10:16:01.040Z,25.69
2022-08-25T10:16:51.122Z,25.72
2022-08-25T10:17:41.022Z,25.74
2022-08-25T10:18:31.008Z,25.79
2022-08-25T10:19:20.991Z,25.82
2022-08-25T10:20:11.011Z,25.86
2022-08-25T10:21:00.980Z,25.93
2022-08-25T10:21:50.972Z,25.96
2022-08-25T10:22:40.976Z,25.98
2022-08-25T10:23:30.962Z,26.01
2022-08-25T10:24:20.951Z,26.04
2022-08-25T10:25:10.939Z,26.08
2022-08-25T10:26:03.629Z,26.09
2022-08-25T10:26:50.912Z,26.13
2022-08-25T10:27:40.904Z,26.11
2022-08-25T10:28:30.926Z,26.16
2022-08-25T10:29:20.872Z,26.11
2022-08-25T10:30:10.913Z,26.09
2022-08-25T10:31:00.910Z,26.11
2022-08-25T10:31:50.863Z,26.12
2022-08-25T10:32:40.851Z,26.16
2022-08-25T10:33:30.991Z,26.19
2022-08-25T10:34:20.828Z,26.17
2022-08-25T10:35:12.095Z,26.17
2022-08-25T10:36:00.823Z,26.23
2022-08-25T10:36:50.856Z,26.24
2022-08-25T10:37:40.794Z,26.31
2022-08-25T10:38:35.501Z,26.32
2022-08-25T10:39:34.601Z,26.34
2022-08-25T10:40:12.261Z,26.34
2022-08-25T10:41:00.785Z,26.34
2022-08-25T10:41:53.350Z,26.36
2022-08-25T10:42:40.733Z,26.42
2022-08-25T10:43:30.733Z,26.50
2022-08-25T10:44:20.724Z,26.57
2022-08-25T10:45:16.156Z,26.64